TimeCST,TemperatureF,Dew PointF,Humidity,Sea Level PressureIn,VisibilityMPH,Wind Direction,Wind SpeedMPH,Gust SpeedMPH,PrecipitationIn,Events,Conditions,WindDirDegrees,DateUTC
12:53 AM,46.9,41.0,80,30.17,10.0,SE,9.2,-,N/A,,Clear,140,2011-11-19 06:53:00
1:53 AM,46.9,42.1,83,30.17,10.0,SE,8.1,-,N/A,,Clear,140,2011-11-19 07:53:00
2:53 AM,48.0,43.0,83,30.17,10.0,SE,9.2,-,N/A,,Clear,140,2011-11-19 08:53:00
3:53 AM,46.0,43.0,89,30.17,10.0,SE,4.6,-,N/A,,Clear,140,2011-11-19 09:53:00
4:53 AM,46.0,44.1,93,30.16,10.0,SE,9.2,-,N/A,,Clear,130,2011-11-19 10:53:00
5:53 AM,48.9,46.0,90,30.16,10.0,SE,6.9,-,N/A,,Clear,140,2011-11-19 11:53:00
6:53 AM,50.0,46.0,86,30.17,10.0,SE,9.2,-,N/A,,Clear,130,2011-11-19 12:53:00
7:53 AM,54.0,48.9,83,30.17,10.0,SE,8.1,-,N/A,,Clear,140,2011-11-19 13:53:00
9:53 AM,64.9,53.1,65,30.18,10.0,SSE,9.2,-,N/A,,Clear,150,2011-11-19 15:53:00
10:53 AM,71.1,55.0,57,30.16,10.0,SSE,12.7,-,N/A,,Partly Cloudy,150,2011-11-19 16:53:00
11:53 AM,73.9,55.9,53,30.14,10.0,South,12.7,21.9,N/A,,Overcast,190,2011-11-19 17:53:00
12:53 PM,73.9,57.0,55,30.11,10.0,Variable,6.9,17.3,N/A,,Mostly Cloudy,0,2011-11-19 18:53:00
1:53 PM,75.0,57.0,53,30.09,10.0,SSW,13.8,23.0,N/A,,Mostly Cloudy,200,2011-11-19 19:53:00
3:53 PM,75.0,57.0,53,30.08,10.0,South,11.5,-,N/A,,Clear,180,2011-11-19 21:53:00
4:53 PM,73.0,57.9,59,30.09,10.0,SSE,11.5,-,N/A,,Overcast,160,2011-11-19 22:53:00
5:53 PM,68.0,57.9,70,30.09,10.0,SSE,8.1,-,N/A,,Clear,150,2011-11-19 23:53:00
7:53 PM,66.9,57.9,73,30.11,10.0,SSE,9.2,-,N/A,,Clear,150,2011-11-20 01:53:00
8:53 PM,66.0,57.9,75,30.13,10.0,SSE,8.1,-,N/A,,Clear,150,2011-11-20 02:53:00
9:53 PM,64.0,57.9,80,30.15,10.0,SE,4.6,-,N/A,,Mostly Cloudy,130,2011-11-20 03:53:00
10:53 PM,66.0,59.0,78,30.16,10.0,SSE,9.2,-,N/A,,Scattered Clouds,150,2011-11-20 04:53:00
11:53 PM,66.0,60.1,81,30.15,10.0,SSE,12.7,-,N/A,,Clear,150,2011-11-20 05:53:00